sensor_id;sensor_type;location;lat;lon;timestamp;P1;durP1;ratioP1;P2;durP2;ratioP2
2712;SDS011;1366;47.988;7.856;2022-12-29T05:00:52;2.63;;;1.67;;
2712;SDS011;1366;47.988;7.856;2022-12-29T05:03:18;2.57;;;2.30;;
2712;SDS011;1366;47.988;7.856;2022-12-29T05:05:44;2.67;;;2.00;;
2712;SDS011;1366;47.988;7.856;2022-12-29T05:08:10;3.10;;;2.17;;
2712;SDS011;1366;47.988;7.856;2022-12-29T05:10:36;2.00;;;1.90;;
2712;SDS011;1366;47.988;7.856;2022-12-29T05:13:02;2.10;;;2.00;;
2712;SDS011;1366;47.988;7.856;2022-12-29T05:15:29;2.90;;;1.87;;
2712;SDS011;1366;47.988;7.856;2022-12-29T05:17:56;1.93;;;1.67;;
2712;SDS011;1366;47.988;7.856;2022-12-29T05:20:22;2.27;;;2.07;;
2712;SDS011;1366;47.988;7.856;2022-12-29T05:22:48;1.80;;;1.67;;
2712;SDS011;1366;47.988;7.856;2022-12-29T05:25:14;1.97;;;1.70;;
2712;SDS011;1366;47.988;7.856;2022-12-29T05:30:10;1.60;;;1.50;;
2712;SDS011;1366;47.988;7.856;2022-12-29T05:32:36;1.70;;;1.50;;
2712;SDS011;1366;47.988;7.856;2022-12-29T05:35:02;1.60;;;1.50;;
2712;SDS011;1366;47.988;7.856;2022-12-29T05:37:28;2.17;;;1.53;;
2712;SDS011;1366;47.988;7.856;2022-12-29T05:39:54;1.70;;;1.60;;
2712;SDS011;1366;47.988;7.856;2022-12-29T05:42:20;1.63;;;1.53;;
2712;SDS011;1366;47.988;7.856;2022-12-29T05:44:46;1.60;;;1.47;;
2712;SDS011;1366;47.988;7.856;2022-12-29T05:47:15;3.60;;;1.87;;
2712;SDS011;1366;47.988;7.856;2022-12-29T05:49:41;3.23;;;1.60;;
2712;SDS011;1366;47.988;7.856;2022-12-29T05:52:07;1.70;;;1.53;;
2712;SDS011;1366;47.988;7.856;2022-12-29T05:54:33;1.43;;;1.30;;
2712;SDS011;1366;47.988;7.856;2022-12-29T05:56:59;4.50;;;1.60;;
2712;SDS011;1366;47.988;7.856;2022-12-29T05:59:25;1.70;;;1.60;;
2712;SDS011;1366;47.988;7.856;2022-12-29T06:01:51;1.60;;;1.50;;
2712;SDS011;1366;47.988;7.856;2022-12-29T06:04:17;1.87;;;1.77;;
2712;SDS011;1366;47.988;7.856;2022-12-29T06:06:43;2.13;;;1.50;;
2712;SDS011;1366;47.988;7.856;2022-12-29T06:09:09;2.43;;;2.23;;
2712;SDS011;1366;47.988;7.856;2022-12-29T06:11:35;1.77;;;1.67;;
2712;SDS011;1366;47.988;7.856;2022-12-29T06:14:02;2.33;;;1.57;;
2712;SDS011;1366;47.988;7.856;2022-12-29T06:16:28;2.00;;;1.80;;
2712;SDS011;1366;47.988;7.856;2022-12-29T06:18:54;3.97;;;1.90;;
2712;SDS011;1366;47.988;7.856;2022-12-29T06:21:20;1.43;;;1.33;;
2712;SDS011;1366;47.988;7.856;2022-12-29T06:23:46;1.87;;;1.77;;
2712;SDS011;1366;47.988;7.856;2022-12-29T06:26:12;1.37;;;1.27;;
2712;SDS011;1366;47.988;7.856;2022-12-29T06:28:38;1.77;;;1.67;;
2712;SDS011;1366;47.988;7.856;2022-12-29T06:31:04;1.90;;;1.63;;
2712;SDS011;1366;47.988;7.856;2022-12-29T06:33:30;1.77;;;1.60;;
2712;SDS011;1366;47.988;7.856;2022-12-29T06:35:56;2.23;;;1.60;;
2712;SDS011;1366;47.988;7.856;2022-12-29T06:38:22;3.60;;;1.80;;
2712;SDS011;1366;47.988;7.856;2022-12-29T06:40:48;2.60;;;1.83;;
2712;SDS011;1366;47.988;7.856;2022-12-29T06:43:14;1.70;;;1.60;;
2712;SDS011;1366;47.988;7.856;2022-12-29T06:45:40;2.10;;;1.60;;
2712;SDS011;1366;47.988;7.856;2022-12-29T06:48:06;2.00;;;1.73;;
2712;SDS011;1366;47.988;7.856;2022-12-29T06:50:33;2.30;;;2.10;;
2712;SDS011;1366;47.988;7.856;2022-12-29T06:52:59;1.90;;;1.70;;
2712;SDS011;1366;47.988;7.856;2022-12-29T06:55:25;2.33;;;1.57;;
2712;SDS011;1366;47.988;7.856;2022-12-29T06:57:53;1.83;;;1.73;;
2712;SDS011;1366;47.988;7.856;2022-12-29T07:00:19;1.67;;;1.57;;
2712;SDS011;1366;47.988;7.856;2022-12-29T07:02:45;1.90;;;1.80;;
2712;SDS011;1366;47.988;7.856;2022-12-29T07:05:11;2.80;;;1.53;;
2712;SDS011;1366;47.988;7.856;2022-12-29T07:07:38;1.73;;;1.43;;
2712;SDS011;1366;47.988;7.856;2022-12-29T07:10:05;1.57;;;1.47;;
2712;SDS011;1366;47.988;7.856;2022-12-29T07:12:31;3.03;;;1.50;;
2712;SDS011;1366;47.988;7.856;2022-12-29T07:14:57;2.13;;;1.80;;
2712;SDS011;1366;47.988;7.856;2022-12-29T07:17:23;1.83;;;1.73;;
2712;SDS011;1366;47.988;7.856;2022-12-29T07:19:49;3.63;;;1.37;;
2712;SDS011;1366;47.988;7.856;2022-12-29T07:22:15;1.80;;;1.70;;
2712;SDS011;1366;47.988;7.856;2022-12-29T07:24:41;1.60;;;1.50;;
2712;SDS011;1366;47.988;7.856;2022-12-29T07:27:08;1.83;;;1.73;;
2712;SDS011;1366;47.988;7.856;2022-12-29T07:29:34;1.97;;;1.80;;
2712;SDS011;1366;47.988;7.856;2022-12-29T07:32:02;1.73;;;1.63;;
2712;SDS011;1366;47.988;7.856;2022-12-29T07:34:28;2.07;;;1.87;;
2712;SDS011;1366;47.988;7.856;2022-12-29T07:36:54;2.10;;;2.00;;
2712;SDS011;1366;47.988;7.856;2022-12-29T07:39:20;2.30;;;2.10;;
2712;SDS011;1366;47.988;7.856;2022-12-29T07:41:46;1.70;;;1.60;;
2712;SDS011;1366;47.988;7.856;2022-12-29T07:44:12;1.60;;;1.50;;
2712;SDS011;1366;47.988;7.856;2022-12-29T07:46:38;2.23;;;1.60;;
2712;SDS011;1366;47.988;7.856;2022-12-29T07:49:04;2.20;;;1.70;;
2712;SDS011;1366;47.988;7.856;2022-12-29T07:51:30;3.13;;;1.63;;
2712;SDS011;1366;47.988;7.856;2022-12-29T07:53:57;1.60;;;1.50;;
2712;SDS011;1366;47.988;7.856;2022-12-29T07:56:25;1.50;;;1.40;;
2712;SDS011;1366;47.988;7.856;2022-12-29T07:58:51;1.87;;;1.53;;
2712;SDS011;1366;47.988;7.856;2022-12-29T08:01:17;1.60;;;1.50;;
2712;SDS011;1366;47.988;7.856;2022-12-29T08:03:43;2.23;;;2.03;;
2712;SDS011;1366;47.988;7.856;2022-12-29T08:06:10;2.63;;;2.27;;
2712;SDS011;1366;47.988;7.856;2022-12-29T08:08:36;1.90;;;1.80;;
2712;SDS011;1366;47.988;7.856;2022-12-29T08:11:02;1.70;;;1.60;;
2712;SDS011;1366;47.988;7.856;2022-12-29T08:13:29;3.30;;;1.67;;
2712;SDS011;1366;47.988;7.856;2022-12-29T08:15:57;1.70;;;1.60;;
2712;SDS011;1366;47.988;7.856;2022-12-29T08:18:23;1.53;;;1.43;;
2712;SDS011;1366;47.988;7.856;2022-12-29T08:20:49;2.27;;;2.07;;
2712;SDS011;1366;47.988;7.856;2022-12-29T08:23:15;2.23;;;2.03;;
2712;SDS011;1366;47.988;7.856;2022-12-29T08:25:41;1.93;;;1.83;;
2712;SDS011;1366;47.988;7.856;2022-12-29T08:28:07;2.50;;;1.97;;
2712;SDS011;1366;47.988;7.856;2022-12-29T08:30:33;1.80;;;1.70;;
2712;SDS011;1366;47.988;7.856;2022-12-29T08:32:59;1.97;;;1.87;;
2712;SDS011;1366;47.988;7.856;2022-12-29T08:35:25;3.50;;;1.70;;
2712;SDS011;1366;47.988;7.856;2022-12-29T08:37:52;1.63;;;1.50;;
2712;SDS011;1366;47.988;7.856;2022-12-29T08:40:18;2.50;;;1.63;;
2712;SDS011;1366;47.988;7.856;2022-12-29T08:42:44;5.23;;;1.80;;
2712;SDS011;1366;47.988;7.856;2022-12-29T08:45:10;2.80;;;1.87;;
2712;SDS011;1366;47.988;7.856;2022-12-29T08:47:36;2.00;;;1.67;;
2712;SDS011;1366;47.988;7.856;2022-12-29T08:50:02;1.70;;;1.60;;
2712;SDS011;1366;47.988;7.856;2022-12-29T08:52:28;3.07;;;2.13;;
2712;SDS011;1366;47.988;7.856;2022-12-29T08:54:54;1.80;;;1.70;;
2712;SDS011;1366;47.988;7.856;2022-12-29T08:57:20;2.40;;;2.03;;
2712;SDS011;1366;47.988;7.856;2022-12-29T08:59:46;2.00;;;1.90;;
2712;SDS011;1366;47.988;7.856;2022-12-29T09:02:12;2.87;;;1.67;;
2712;SDS011;1366;47.988;7.856;2022-12-29T09:04:38;2.37;;;1.60;;
2712;SDS011;1366;47.988;7.856;2022-12-29T09:07:04;2.13;;;2.03;;
2712;SDS011;1366;47.988;7.856;2022-12-29T09:09:31;3.23;;;1.67;;
2712;SDS011;1366;47.988;7.856;2022-12-29T09:11:57;1.93;;;1.60;;
2712;SDS011;1366;47.988;7.856;2022-12-29T09:14:23;2.53;;;1.93;;
2712;SDS011;1366;47.988;7.856;2022-12-29T09:16:51;1.77;;;1.67;;
2712;SDS011;1366;47.988;7.856;2022-12-29T09:19:35;2.13;;;1.87;;
2712;SDS011;1366;47.988;7.856;2022-12-29T09:22:01;2.47;;;2.27;;
2712;SDS011;1366;47.988;7.856;2022-12-29T09:24:28;2.00;;;1.90;;
2712;SDS011;1366;47.988;7.856;2022-12-29T09:26:54;2.80;;;2.07;;
2712;SDS011;1366;47.988;7.856;2022-12-29T09:29:20;2.03;;;1.90;;
2712;SDS011;1366;47.988;7.856;2022-12-29T09:31:46;2.00;;;1.80;;
2712;SDS011;1366;47.988;7.856;2022-12-29T09:34:12;3.17;;;2.23;;
2712;SDS011;1366;47.988;7.856;2022-12-29T09:36:38;4.00;;;2.10;;
2712;SDS011;1366;47.988;7.856;2022-12-29T09:39:04;2.60;;;2.00;;
2712;SDS011;1366;47.988;7.856;2022-12-29T09:41:34;2.13;;;1.93;;
2712;SDS011;1366;47.988;7.856;2022-12-29T09:46:35;3.20;;;2.27;;
2712;SDS011;1366;47.988;7.856;2022-12-29T09:51:31;2.03;;;1.90;;
2712;SDS011;1366;47.988;7.856;2022-12-29T09:54:00;1.87;;;1.77;;
2712;SDS011;1366;47.988;7.856;2022-12-29T09:56:28;2.67;;;2.20;;
2712;SDS011;1366;47.988;7.856;2022-12-29T10:04:17;3.03;;;2.73;;
2712;SDS011;1366;47.988;7.856;2022-12-29T10:19:46;2.83;;;2.63;;
2712;SDS011;1366;47.988;7.856;2022-12-29T10:25:08;2.33;;;2.10;;
2712;SDS011;1366;47.988;7.856;2022-12-29T10:27:36;3.07;;;1.90;;
2712;SDS011;1366;47.988;7.856;2022-12-29T10:30:03;2.80;;;2.20;;
2712;SDS011;1366;47.988;7.856;2022-12-29T10:32:31;3.27;;;2.60;;
2712;SDS011;1366;47.988;7.856;2022-12-29T10:34:59;2.27;;;2.00;;
2712;SDS011;1366;47.988;7.856;2022-12-29T10:37:42;2.97;;;2.67;;
2712;SDS011;1366;47.988;7.856;2022-12-29T10:40:12;3.17;;;2.33;;
2712;SDS011;1366;47.988;7.856;2022-12-29T10:42:41;3.50;;;2.20;;
2712;SDS011;1366;47.988;7.856;2022-12-29T10:45:15;2.90;;;2.60;;
2712;SDS011;1366;47.988;7.856;2022-12-29T10:47:47;2.80;;;2.60;;
2712;SDS011;1366;47.988;7.856;2022-12-29T10:50:15;2.57;;;2.30;;
2712;SDS011;1366;47.988;7.856;2022-12-29T10:52:41;3.57;;;2.30;;
2712;SDS011;1366;47.988;7.856;2022-12-29T10:55:15;2.97;;;2.43;;
2712;SDS011;1366;47.988;7.856;2022-12-29T10:57:43;2.83;;;2.63;;
2712;SDS011;1366;47.988;7.856;2022-12-29T11:00:14;2.70;;;2.10;;
2712;SDS011;1366;47.988;7.856;2022-12-29T11:07:52;2.87;;;2.23;;
2712;SDS011;1366;47.988;7.856;2022-12-29T11:12:55;2.40;;;2.20;;
2712;SDS011;1366;47.988;7.856;2022-12-29T11:15:21;2.80;;;2.20;;
2712;SDS011;1366;47.988;7.856;2022-12-29T11:17:49;2.40;;;2.10;;
2712;SDS011;1366;47.988;7.856;2022-12-29T11:22:57;2.23;;;2.13;;
2712;SDS011;1366;47.988;7.856;2022-12-29T11:25:23;2.93;;;2.60;;
2712;SDS011;1366;47.988;7.856;2022-12-29T11:27:56;2.53;;;2.43;;
2712;SDS011;1366;47.988;7.856;2022-12-29T11:30:23;2.70;;;2.13;;
2712;SDS011;1366;47.988;7.856;2022-12-29T11:32:51;2.67;;;2.33;;
2712;SDS011;1366;47.988;7.856;2022-12-29T11:35:30;2.10;;;2.00;;
2712;SDS011;1366;47.988;7.856;2022-12-29T11:37:57;2.83;;;2.10;;
2712;SDS011;1366;47.988;7.856;2022-12-29T11:40:23;2.23;;;2.03;;
2712;SDS011;1366;47.988;7.856;2022-12-29T11:43:00;2.00;;;1.90;;
2712;SDS011;1366;47.988;7.856;2022-12-29T11:45:31;4.27;;;2.83;;
2712;SDS011;1366;47.988;7.856;2022-12-29T11:48:00;3.27;;;1.90;;
2712;SDS011;1366;47.988;7.856;2022-12-29T11:50:28;3.23;;;1.80;;
2712;SDS011;1366;47.988;7.856;2022-12-29T11:53:06;2.10;;;2.00;;
2712;SDS011;1366;47.988;7.856;2022-12-29T11:55:36;2.00;;;1.90;;
2712;SDS011;1366;47.988;7.856;2022-12-29T11:58:02;2.50;;;2.30;;
2712;SDS011;1366;47.988;7.856;2022-12-29T12:00:30;1.90;;;1.80;;
2712;SDS011;1366;47.988;7.856;2022-12-29T12:08:17;1.70;;;1.60;;
2712;SDS011;1366;47.988;7.856;2022-12-29T12:10:46;2.20;;;2.00;;
2712;SDS011;1366;47.988;7.856;2022-12-29T12:15:40;1.83;;;1.73;;
2712;SDS011;1366;47.988;7.856;2022-12-29T12:20:50;1.90;;;1.80;;
2712;SDS011;1366;47.988;7.856;2022-12-29T12:26:12;2.60;;;2.00;;
2712;SDS011;1366;47.988;7.856;2022-12-29T12:28:52;2.13;;;1.90;;
2712;SDS011;1366;47.988;7.856;2022-12-29T12:31:39;2.03;;;1.93;;
2712;SDS011;1366;47.988;7.856;2022-12-29T12:34:09;3.93;;;2.00;;
2712;SDS011;1366;47.988;7.856;2022-12-29T12:36:47;1.70;;;1.60;;
2712;SDS011;1366;47.988;7.856;2022-12-29T12:39:19;2.30;;;2.10;;
2712;SDS011;1366;47.988;7.856;2022-12-29T12:44:18;2.30;;;2.10;;
2712;SDS011;1366;47.988;7.856;2022-12-29T12:51:51;2.63;;;2.43;;
2712;SDS011;1366;47.988;7.856;2022-12-29T12:57:31;2.07;;;1.97;;
2712;SDS011;1366;47.988;7.856;2022-12-29T12:59:56;3.53;;;2.00;;
2712;SDS011;1366;47.988;7.856;2022-12-29T13:16:06;2.37;;;2.17;;
2712;SDS011;1366;47.988;7.856;2022-12-29T13:21:02;2.83;;;2.40;;
2712;SDS011;1366;47.988;7.856;2022-12-29T13:23:44;2.50;;;2.30;;
2712;SDS011;1366;47.988;7.856;2022-12-29T13:26:24;3.17;;;2.27;;
2712;SDS011;1366;47.988;7.856;2022-12-29T13:29:03;3.07;;;2.63;;
2712;SDS011;1366;47.988;7.856;2022-12-29T13:36:49;4.27;;;2.83;;
2712;SDS011;1366;47.988;7.856;2022-12-29T13:39:28;4.17;;;2.67;;
2712;SDS011;1366;47.988;7.856;2022-12-29T13:41:56;2.67;;;2.47;;
2712;SDS011;1366;47.988;7.856;2022-12-29T13:44:24;2.53;;;2.33;;
2712;SDS011;1366;47.988;7.856;2022-12-29T13:46:51;3.70;;;2.70;;
2712;SDS011;1366;47.988;7.856;2022-12-29T13:49:19;2.50;;;2.20;;
2712;SDS011;1366;47.988;7.856;2022-12-29T13:51:57;2.70;;;2.50;;
2712;SDS011;1366;47.988;7.856;2022-12-29T13:58:18;3.07;;;2.70;;
2712;SDS011;1366;47.988;7.856;2022-12-29T14:00:15;2.70;;;2.50;;
2712;SDS011;1366;47.988;7.856;2022-12-29T14:02:46;2.50;;;2.30;;
2712;SDS011;1366;47.988;7.856;2022-12-29T14:07:46;2.93;;;2.73;;
2712;SDS011;1366;47.988;7.856;2022-12-29T14:12:59;2.67;;;2.50;;
2712;SDS011;1366;47.988;7.856;2022-12-29T14:15:26;2.73;;;2.50;;
2712;SDS011;1366;47.988;7.856;2022-12-29T14:20:30;5.30;;;2.80;;
2712;SDS011;1366;47.988;7.856;2022-12-29T14:23:17;3.20;;;2.93;;
2712;SDS011;1366;47.988;7.856;2022-12-29T14:26:09;3.10;;;2.60;;
2712;SDS011;1366;47.988;7.856;2022-12-29T14:28:37;3.17;;;2.50;;
2712;SDS011;1366;47.988;7.856;2022-12-29T14:31:04;3.80;;;2.80;;
2712;SDS011;1366;47.988;7.856;2022-12-29T14:33:32;2.70;;;2.50;;
2712;SDS011;1366;47.988;7.856;2022-12-29T14:36:33;4.10;;;2.80;;
2712;SDS011;1366;47.988;7.856;2022-12-29T14:38:50;2.50;;;2.30;;
2712;SDS011;1366;47.988;7.856;2022-12-29T14:41:17;2.50;;;2.30;;
2712;SDS011;1366;47.988;7.856;2022-12-29T14:43:51;2.40;;;2.20;;
2712;SDS011;1366;47.988;7.856;2022-12-29T14:46:18;2.80;;;2.60;;
2712;SDS011;1366;47.988;7.856;2022-12-29T14:48:44;3.70;;;2.50;;
2712;SDS011;1366;47.988;7.856;2022-12-29T14:51:20;2.40;;;2.20;;
2712;SDS011;1366;47.988;7.856;2022-12-29T14:53:48;2.60;;;2.40;;
2712;SDS011;1366;47.988;7.856;2022-12-29T14:56:18;2.30;;;2.10;;
2712;SDS011;1366;47.988;7.856;2022-12-29T14:58:56;3.47;;;2.73;;
2712;SDS011;1366;47.988;7.856;2022-12-29T15:01:27;2.60;;;2.40;;
2712;SDS011;1366;47.988;7.856;2022-12-29T15:03:55;2.40;;;2.30;;
2712;SDS011;1366;47.988;7.856;2022-12-29T15:06:23;3.50;;;3.20;;
2712;SDS011;1366;47.988;7.856;2022-12-29T15:14:23;4.10;;;2.40;;
2712;SDS011;1366;47.988;7.856;2022-12-29T15:16:50;4.00;;;2.80;;
2712;SDS011;1366;47.988;7.856;2022-12-29T15:19:22;2.73;;;2.53;;
2712;SDS011;1366;47.988;7.856;2022-12-29T15:21:48;2.73;;;2.53;;
2712;SDS011;1366;47.988;7.856;2022-12-29T15:24:14;3.27;;;2.97;;
2712;SDS011;1366;47.988;7.856;2022-12-29T15:26:50;2.60;;;2.40;;
2712;SDS011;1366;47.988;7.856;2022-12-29T15:32:11;4.00;;;2.53;;
2712;SDS011;1366;47.988;7.856;2022-12-29T15:34:43;3.00;;;2.57;;
2712;SDS011;1366;47.988;7.856;2022-12-29T15:37:15;2.90;;;2.60;;
2712;SDS011;1366;47.988;7.856;2022-12-29T15:39:42;3.47;;;2.77;;
2712;SDS011;1366;47.988;7.856;2022-12-29T15:43:10;2.43;;;2.23;;
2712;SDS011;1366;47.988;7.856;2022-12-29T15:45:04;4.27;;;2.60;;
2712;SDS011;1366;47.988;7.856;2022-12-29T15:47:31;3.50;;;3.17;;
2712;SDS011;1366;47.988;7.856;2022-12-29T15:50:05;3.13;;;2.83;;
2712;SDS011;1366;47.988;7.856;2022-12-29T15:52:32;3.60;;;2.80;;
2712;SDS011;1366;47.988;7.856;2022-12-29T15:54:58;3.03;;;2.70;;
2712;SDS011;1366;47.988;7.856;2022-12-29T15:57:26;2.77;;;2.57;;
2712;SDS011;1366;47.988;7.856;2022-12-29T15:59:53;2.63;;;2.40;;
2712;SDS011;1366;47.988;7.856;2022-12-29T16:02:19;3.03;;;2.83;;
2712;SDS011;1366;47.988;7.856;2022-12-29T16:04:46;3.03;;;2.80;;
2712;SDS011;1366;47.988;7.856;2022-12-29T16:07:29;2.73;;;2.53;;
2712;SDS011;1366;47.988;7.856;2022-12-29T16:09:56;3.30;;;3.00;;
2712;SDS011;1366;47.988;7.856;2022-12-29T16:12:24;3.80;;;3.10;;
2712;SDS011;1366;47.988;7.856;2022-12-29T16:14:53;3.53;;;3.23;;
2712;SDS011;1366;47.988;7.856;2022-12-29T16:17:21;4.53;;;3.20;;
2712;SDS011;1366;47.988;7.856;2022-12-29T16:19:52;2.80;;;2.60;;
2712;SDS011;1366;47.988;7.856;2022-12-29T16:22:30;3.30;;;3.10;;
2712;SDS011;1366;47.988;7.856;2022-12-29T16:24:57;3.33;;;2.83;;
2712;SDS011;1366;47.988;7.856;2022-12-29T16:27:42;3.47;;;3.17;;
2712;SDS011;1366;47.988;7.856;2022-12-29T16:30:21;3.23;;;2.93;;
2712;SDS011;1366;47.988;7.856;2022-12-29T16:32:49;3.17;;;2.97;;
2712;SDS011;1366;47.988;7.856;2022-12-29T16:37:44;2.80;;;2.60;;
2712;SDS011;1366;47.988;7.856;2022-12-29T16:42:46;3.00;;;2.80;;
2712;SDS011;1366;47.988;7.856;2022-12-29T16:47:39;3.00;;;2.70;;
2712;SDS011;1366;47.988;7.856;2022-12-29T16:50:11;2.80;;;2.60;;
2712;SDS011;1366;47.988;7.856;2022-12-29T16:52:38;2.70;;;2.50;;
2712;SDS011;1366;47.988;7.856;2022-12-29T16:55:04;3.37;;;2.60;;
2712;SDS011;1366;47.988;7.856;2022-12-29T16:57:32;2.60;;;2.37;;
2712;SDS011;1366;47.988;7.856;2022-12-29T17:00:06;2.37;;;2.20;;
2712;SDS011;1366;47.988;7.856;2022-12-29T17:02:33;2.40;;;2.20;;
2712;SDS011;1366;47.988;7.856;2022-12-29T17:05:12;2.67;;;1.97;;
2712;SDS011;1366;47.988;7.856;2022-12-29T17:07:38;2.40;;;2.30;;
2712;SDS011;1366;47.988;7.856;2022-12-29T17:10:05;3.77;;;2.50;;
2712;SDS011;1366;47.988;7.856;2022-12-29T17:12:31;2.47;;;2.27;;
2712;SDS011;1366;47.988;7.856;2022-12-29T17:17:40;2.43;;;2.33;;
2712;SDS011;1366;47.988;7.856;2022-12-29T17:22:45;2.90;;;2.70;;
2712;SDS011;1366;47.988;7.856;2022-12-29T17:25:12;2.03;;;1.90;;
2712;SDS011;1366;47.988;7.856;2022-12-29T17:30:05;2.57;;;2.37;;
2712;SDS011;1366;47.988;7.856;2022-12-29T17:32:35;2.17;;;2.07;;
2712;SDS011;1366;47.988;7.856;2022-12-29T17:35:01;5.33;;;2.30;;
2712;SDS011;1366;47.988;7.856;2022-12-29T17:37:29;2.33;;;2.10;;
2712;SDS011;1366;47.988;7.856;2022-12-29T17:39:55;2.30;;;2.10;;
2712;SDS011;1366;47.988;7.856;2022-12-29T17:42:21;3.00;;;2.80;;
2712;SDS011;1366;47.988;7.856;2022-12-29T17:44:48;2.73;;;2.53;;
2712;SDS011;1366;47.988;7.856;2022-12-29T17:47:14;3.00;;;2.40;;
2712;SDS011;1366;47.988;7.856;2022-12-29T17:49:42;2.27;;;2.17;;
2712;SDS011;1366;47.988;7.856;2022-12-29T17:52:12;3.00;;;2.80;;
2712;SDS011;1366;47.988;7.856;2022-12-29T17:54:44;3.43;;;3.13;;
2712;SDS011;1366;47.988;7.856;2022-12-29T17:57:14;6.27;;;3.67;;
2712;SDS011;1366;47.988;7.856;2022-12-29T17:59:41;4.43;;;2.90;;
2712;SDS011;1366;47.988;7.856;2022-12-29T18:02:24;2.60;;;2.10;;
2712;SDS011;1366;47.988;7.856;2022-12-29T18:04:50;2.20;;;2.10;;
2712;SDS011;1366;47.988;7.856;2022-12-29T18:07:17;3.47;;;2.63;;
2712;SDS011;1366;47.988;7.856;2022-12-29T18:09:43;3.93;;;2.73;;
2712;SDS011;1366;47.988;7.856;2022-12-29T18:12:19;2.70;;;2.50;;
2712;SDS011;1366;47.988;7.856;2022-12-29T18:14:50;3.17;;;2.93;;
2712;SDS011;1366;47.988;7.856;2022-12-29T18:17:16;4.40;;;3.67;;
2712;SDS011;1366;47.988;7.856;2022-12-29T18:19:42;3.43;;;2.63;;
2712;SDS011;1366;47.988;7.856;2022-12-29T18:22:08;3.80;;;3.00;;
2712;SDS011;1366;47.988;7.856;2022-12-29T18:24:34;2.60;;;2.40;;
2712;SDS011;1366;47.988;7.856;2022-12-29T18:27:01;2.67;;;2.47;;
2712;SDS011;1366;47.988;7.856;2022-12-29T18:29:27;2.40;;;2.20;;
2712;SDS011;1366;47.988;7.856;2022-12-29T18:31:53;2.20;;;2.10;;
2712;SDS011;1366;47.988;7.856;2022-12-29T18:34:19;2.00;;;1.90;;
2712;SDS011;1366;47.988;7.856;2022-12-29T18:36:45;2.27;;;2.07;;
2712;SDS011;1366;47.988;7.856;2022-12-29T18:39:11;2.20;;;2.00;;
2712;SDS011;1366;47.988;7.856;2022-12-29T18:41:38;2.47;;;2.27;;
2712;SDS011;1366;47.988;7.856;2022-12-29T18:44:04;2.70;;;2.60;;
2712;SDS011;1366;47.988;7.856;2022-12-29T18:46:30;2.40;;;2.20;;
2712;SDS011;1366;47.988;7.856;2022-12-29T18:48:56;2.20;;;2.10;;
2712;SDS011;1366;47.988;7.856;2022-12-29T18:51:22;2.50;;;2.30;;
2712;SDS011;1366;47.988;7.856;2022-12-29T18:53:49;2.77;;;2.20;;
2712;SDS011;1366;47.988;7.856;2022-12-29T18:56:17;2.20;;;2.10;;
2712;SDS011;1366;47.988;7.856;2022-12-29T18:58:45;2.67;;;2.20;;
2712;SDS011;1366;47.988;7.856;2022-12-29T19:01:24;2.30;;;2.10;;
2712;SDS011;1366;47.988;7.856;2022-12-29T19:03:51;2.23;;;2.10;;
2712;SDS011;1366;47.988;7.856;2022-12-29T19:06:18;3.20;;;2.53;;
2712;SDS011;1366;47.988;7.856;2022-12-29T19:08:45;2.30;;;2.20;;
2712;SDS011;1366;47.988;7.856;2022-12-29T19:11:11;2.30;;;2.10;;
2712;SDS011;1366;47.988;7.856;2022-12-29T19:13:37;2.13;;;1.93;;
2712;SDS011;1366;47.988;7.856;2022-12-29T19:16:05;1.93;;;1.83;;
2712;SDS011;1366;47.988;7.856;2022-12-29T19:18:32;2.30;;;2.10;;
2712;SDS011;1366;47.988;7.856;2022-12-29T19:20:58;2.03;;;1.83;;
2712;SDS011;1366;47.988;7.856;2022-12-29T19:23:25;2.80;;;2.03;;
2712;SDS011;1366;47.988;7.856;2022-12-29T19:25:52;2.00;;;1.90;;
2712;SDS011;1366;47.988;7.856;2022-12-29T19:28:25;2.17;;;2.07;;
2712;SDS011;1366;47.988;7.856;2022-12-29T19:30:52;2.33;;;2.13;;
2712;SDS011;1366;47.988;7.856;2022-12-29T19:33:20;3.43;;;2.13;;
2712;SDS011;1366;47.988;7.856;2022-12-29T19:35:47;2.43;;;1.90;;
2712;SDS011;1366;47.988;7.856;2022-12-29T19:38:13;1.77;;;1.67;;
2712;SDS011;1366;47.988;7.856;2022-12-29T19:40:44;1.60;;;1.50;;
2712;SDS011;1366;47.988;7.856;2022-12-29T19:43:10;1.83;;;1.73;;
2712;SDS011;1366;47.988;7.856;2022-12-29T19:45:40;1.80;;;1.70;;
2712;SDS011;1366;47.988;7.856;2022-12-29T19:48:07;1.70;;;1.60;;
2712;SDS011;1366;47.988;7.856;2022-12-29T19:50:33;1.70;;;1.60;;
2712;SDS011;1366;47.988;7.856;2022-12-29T19:53:00;1.80;;;1.70;;
2712;SDS011;1366;47.988;7.856;2022-12-29T19:55:26;1.70;;;1.60;;
2712;SDS011;1366;47.988;7.856;2022-12-29T19:57:52;1.90;;;1.80;;
2712;SDS011;1366;47.988;7.856;2022-12-29T20:00:18;1.70;;;1.60;;
2712;SDS011;1366;47.988;7.856;2022-12-29T20:02:44;2.43;;;1.80;;
2712;SDS011;1366;47.988;7.856;2022-12-29T20:05:10;2.33;;;2.23;;
2712;SDS011;1366;47.988;7.856;2022-12-29T20:07:36;1.97;;;1.83;;
2712;SDS011;1366;47.988;7.856;2022-12-29T20:10:04;2.03;;;1.63;;
2712;SDS011;1366;47.988;7.856;2022-12-29T20:12:30;3.17;;;2.30;;
2712;SDS011;1366;47.988;7.856;2022-12-29T20:14:56;1.90;;;1.80;;
2712;SDS011;1366;47.988;7.856;2022-12-29T20:17:22;1.47;;;1.37;;
2712;SDS011;1366;47.988;7.856;2022-12-29T20:19:48;1.77;;;1.67;;
2712;SDS011;1366;47.988;7.856;2022-12-29T20:22:15;1.50;;;1.40;;
2712;SDS011;1366;47.988;7.856;2022-12-29T20:24:41;2.17;;;1.70;;
2712;SDS011;1366;47.988;7.856;2022-12-29T20:27:08;1.60;;;1.50;;
2712;SDS011;1366;47.988;7.856;2022-12-29T20:29:36;1.80;;;1.70;;
2712;SDS011;1366;47.988;7.856;2022-12-29T20:32:04;1.90;;;1.80;;
2712;SDS011;1366;47.988;7.856;2022-12-29T20:34:30;1.80;;;1.70;;
2712;SDS011;1366;47.988;7.856;2022-12-29T20:36:56;1.87;;;1.77;;
2712;SDS011;1366;47.988;7.856;2022-12-29T20:39:22;2.07;;;1.67;;
2712;SDS011;1366;47.988;7.856;2022-12-29T20:41:48;1.93;;;1.80;;
2712;SDS011;1366;47.988;7.856;2022-12-29T20:44:15;2.27;;;1.73;;
2712;SDS011;1366;47.988;7.856;2022-12-29T20:46:41;1.63;;;1.53;;
2712;SDS011;1366;47.988;7.856;2022-12-29T20:49:07;1.77;;;1.67;;
2712;SDS011;1366;47.988;7.856;2022-12-29T20:51:33;1.50;;;1.40;;
2712;SDS011;1366;47.988;7.856;2022-12-29T20:53:59;1.70;;;1.60;;
2712;SDS011;1366;47.988;7.856;2022-12-29T20:56:26;1.90;;;1.73;;
2712;SDS011;1366;47.988;7.856;2022-12-29T20:58:54;5.50;;;4.27;;
2712;SDS011;1366;47.988;7.856;2022-12-29T21:01:21;3.43;;;3.23;;
2712;SDS011;1366;47.988;7.856;2022-12-29T21:03:48;6.00;;;5.20;;
2712;SDS011;1366;47.988;7.856;2022-12-29T21:06:14;3.40;;;3.13;;
2712;SDS011;1366;47.988;7.856;2022-12-29T21:08:41;6.33;;;4.30;;
2712;SDS011;1366;47.988;7.856;2022-12-29T21:11:07;4.83;;;4.37;;
2712;SDS011;1366;47.988;7.856;2022-12-29T21:13:34;5.77;;;4.87;;
2712;SDS011;1366;47.988;7.856;2022-12-29T21:16:02;6.33;;;4.70;;
2712;SDS011;1366;47.988;7.856;2022-12-29T21:18:29;4.07;;;3.07;;
2712;SDS011;1366;47.988;7.856;2022-12-29T21:20:55;1.87;;;1.77;;
2712;SDS011;1366;47.988;7.856;2022-12-29T21:23:22;1.93;;;1.70;;
2712;SDS011;1366;47.988;7.856;2022-12-29T21:25:48;2.33;;;2.13;;
2712;SDS011;1366;47.988;7.856;2022-12-29T21:28:15;2.10;;;1.90;;
2712;SDS011;1366;47.988;7.856;2022-12-29T21:30:41;1.97;;;1.80;;
2712;SDS011;1366;47.988;7.856;2022-12-29T21:33:07;2.03;;;1.83;;
2712;SDS011;1366;47.988;7.856;2022-12-29T21:35:34;1.70;;;1.60;;
2712;SDS011;1366;47.988;7.856;2022-12-29T21:38:00;2.20;;;1.40;;
2712;SDS011;1366;47.988;7.856;2022-12-29T21:40:26;1.50;;;1.40;;
2712;SDS011;1366;47.988;7.856;2022-12-29T21:42:52;1.77;;;1.50;;
2712;SDS011;1366;47.988;7.856;2022-12-29T21:45:18;1.97;;;1.87;;
2712;SDS011;1366;47.988;7.856;2022-12-29T21:50:36;1.57;;;1.47;;
2712;SDS011;1366;47.988;7.856;2022-12-29T21:53:22;1.50;;;1.40;;
2712;SDS011;1366;47.988;7.856;2022-12-29T21:56:02;1.37;;;1.27;;
2712;SDS011;1366;47.988;7.856;2022-12-29T21:58:28;1.30;;;1.20;;
2712;SDS011;1366;47.988;7.856;2022-12-29T22:01:12;1.40;;;1.30;;
2712;SDS011;1366;47.988;7.856;2022-12-29T22:03:57;1.33;;;1.23;;
2712;SDS011;1366;47.988;7.856;2022-12-29T22:06:42;1.67;;;1.57;;
2712;SDS011;1366;47.988;7.856;2022-12-29T22:09:26;1.30;;;1.20;;
2712;SDS011;1366;47.988;7.856;2022-12-29T22:12:11;1.40;;;1.33;;
2712;SDS011;1366;47.988;7.856;2022-12-29T22:14:56;1.30;;;1.20;;
2712;SDS011;1366;47.988;7.856;2022-12-29T22:17:22;1.43;;;1.30;;
2712;SDS011;1366;47.988;7.856;2022-12-29T22:19:48;1.30;;;1.23;;
2712;SDS011;1366;47.988;7.856;2022-12-29T22:22:14;1.20;;;1.10;;
2712;SDS011;1366;47.988;7.856;2022-12-29T22:24:41;1.20;;;1.10;;